x

South Huron - 43nm East Of Oscoda, Mi (45008) Wave Buoy

5:50pm - Tue 25th Jul 2017 All times are CDT. -5 hours from GMT.

  • Sig Wave height 0.3ft
  • Average Period 3s
  • Wind
    2mph, 2mph gusts
  • Sea Temp 69°f
  • Air Temp 68°f
  • Sea Pressure 1023.5mb
  • South Huron - 43nm East Of Oscoda, Mi
  • South Huron - 43nm East Of Oscoda, Mi

More Historic Weather Station data

Upgrade to MSW Pro to gain access to the past 30 days of data for over 8000 Wavebouys and Weather Stations around the globe.

Join Pro

Comparision Forecast

View Surf forecast
   
Tue 07/25 5:50pm 0.3ft  -  3s 2 2 mph 1023.5mb 69f 68f
4:50pm 0.3ft  -  3s 4 4 mph 1023.7mb 69f 67f
3:50pm 0.3ft  -  3s 2 4 mph 1024mb 69f 66f
2:50pm 0.3ft  -  3s 4 4 mph 1024.4mb 69f 65f
1:50pm 0.7ft  -  3s  -  2 mph 1024.2mb 70f 65f
12:50pm 0.7ft  -  3s  -  0 mph 1024.3mb 67f 64f
11:50am 0.7ft  -  3s 4 7 mph 1024.2mb 65f 63f
10:50am 0.7ft  -  3s 2 4 mph 1024.6mb 65f 63f
9:50am 0.7ft  -  3s 4 7 mph 1024.3mb 64f 63f
8:50am 0.7ft  -  3s 4 7 mph 1024.3mb 64f 64f
7:50am 0.7ft  -  3s 4 7 mph 1023.9mb 64f 64f
6:50am 0.7ft  -  3s 4 7 mph 1023.4mb 64f 64f
5:50am 1ft 4s 3s 4 7 mph 1022.4mb 63f 64f
4:50am 1ft 4s 3s 7 7 mph 1021.5mb 63f 64f
3:50am 1.3ft 4s 3s 7 7 mph 1021mb 63f 64f
2:50am 1.6ft 4s 4s 9 9 mph 1020.6mb 63f 64f
1:50am 1.6ft 4s 4s 9 11 mph 1020.7mb 63f 64f
12:50am 2ft 5s 4s 11 13 mph 1020.5mb 63f 64f
Mon 07/24 11:50pm 2.5ft 5s 4s 9 9 mph 1020.3mb 63f 64f
10:50pm 2.5ft 6s 4s 11 13 mph 1019.9mb 63f 65f
9:50pm 3ft 5s 4s 11 16 mph 1019.2mb 63f 64f
8:50pm 3.5ft 6s 4s 9 13 mph 1018.5mb 63f 64f
7:50pm 4ft 6s 5s 11 13 mph 1018.1mb 63f 63f
6:50pm 4.5ft 6s 5s 13 16 mph 1017.4mb 63f 64f
5:50pm 4.5ft 6s 5s 13 16 mph 1017mb 63f 64f
4:50pm 5ft 6s 5s 18 22 mph 1016.2mb 63f 63f
3:50pm 5ft 7s 5s 16 20 mph 1016.2mb 63f 63f
2:50pm 5ft 7s 5s 20 22 mph 1015.7mb 62f 63f
1:50pm 6.5ft 6s 5s 20 27 mph 1014.9mb 63f 63f
5:50am 5.5ft 7s 5s 27 31 mph 1009.4mb 66f 62f
4:50am 5ft 7s 5s 20 22 mph 1008.8mb 67f 63f
3:50am 4.5ft 6s 5s 20 22 mph 1008mb 67f 63f
2:50am 4ft 6s 5s 18 20 mph 1007.9mb 67f 64f
1:50am 3.5ft 5s 4s 16 18 mph - 67f 64f
Sun 07/23 11:50pm 1.6ft 6s 3s 16 18 mph 1007.7mb 68f 65f
10:50pm 1.3ft 3s 3s 13 16 mph 1007.3mb 68f 66f
9:50pm 1ft 3s 3s 11 13 mph 1007mb 68f 67f
8:50pm  -   -   -  7 7 mph 1006.8mb 68f 67f
7:50pm 0.7ft  -  3s 13 16 mph 1006.8mb 68f 67f
5:50pm 0.7ft  -  3s 7 9 mph 1006.8mb 69f 65f
4:50pm 0.7ft  -  3s 7 7 mph 1007mb 70f 71f
3:50pm 0.7ft  -  3s 9 11 mph 1006.8mb 70f 71f
2:50pm 1ft 4s 4s 7 7 mph 1007.3mb 70f 71f
1:50pm 1ft 4s 4s 4 4 mph 1007.8mb 70f 71f
11:50am 0.7ft  -  3s 9 9 mph 1008.7mb 69f 69f
10:50am 0.7ft  -  3s 7 7 mph 1008.8mb 69f 69f
9:50am 0.7ft  -  3s  -  2 mph 1008.8mb 68f 69f
8:50am 0.7ft  -  3s 4 4 mph 1009mb 67f 68f
7:50am 0.7ft  -  3s 4 4 mph - 67f 68f
5:50am 0.7ft  -  3s 4 4 mph 1009.1mb 67f 67f
4:50am 0.7ft  -  3s 2 4 mph 1008.5mb 67f 67f
3:50am 0.7ft  -  3s 4 4 mph 1008.2mb 67f 67f
2:50am 0.7ft  -  3s 4 4 mph 1008.8mb 67f 67f
1:50am 0.7ft  -  3s 7 9 mph 1009.5mb 67f 67f
Sat 07/22 11:50pm 1ft 3s 3s 11 13 mph 1009.7mb 68f 68f
10:50pm 1ft 4s 3s 7 7 mph 1009.8mb 68f 68f
9:50pm 1.3ft 4s 3s 9 9 mph 1010mb 68f 68f
8:50pm 1.3ft 3s 3s 11 13 mph 1009.8mb 68f 68f
7:50pm 1.3ft 3s 3s 13 18 mph 1009.3mb 68f 68f
5:50pm 1ft 3s 3s 9 11 mph 1009.5mb 68f 68f
4:50pm 0.7ft  -  3s 13 13 mph 1009.4mb 68f 68f
3:50pm 0.7ft  -  3s 11 13 mph 1009.1mb 68f 67f
2:50pm 0.7ft  -  3s 13 13 mph 1009.7mb 68f 67f
1:50pm 1ft 3s 3s 7 9 mph - 68f 67f
11:50am 0.7ft  -  3s 16 18 mph 1010.5mb 68f 67f
10:50am 0.7ft  -  3s 9 13 mph 1011.4mb 68f 68f
9:50am 0.7ft  -  3s 11 11 mph 1011.6mb 68f 69f
8:50am  -   -   -  7 7 mph 1011.8mb 68f 69f
5:50am 0.3ft  -  2s 9 11 mph 1010.9mb 68f 70f
4:50am 0.3ft  -  3s 11 11 mph 1011mb 68f 70f
3:50am 0.3ft  -  3s 7 9 mph 1011.2mb 69f 70f
2:50am 0.3ft  -  3s 7 9 mph 1012mb 69f 70f
1:50am 0.3ft  -  3s 7 9 mph 1012.1mb 69f 70f
Fri 07/21 11:50pm 0.3ft  -  3s 7 9 mph 1013.6mb 69f 69f